Bishops Castle, United Kingdom
Current Conditions -  °F | °C
As of 4:50 AM on Tuesday 21 Oct 2014 (Local Time) from EGOS Reporting Station
Broken Clouds Broken Clouds  
Wind Chill: 57°   Ceiling: 2300
Heat Index: 57°   Visibility: 6mi
Dew Point: 52°   Wind: 23mph
Humidity: 82%   Direction: 220°SW
Pressure: 29.41"   Gusts: 35mph
Location:  52.49°N, 3°W
Report Text: EGOS 210350Z AUTO 22020G30KT 9999 BKN023/// SCT033/// 14/11 Q0996
Loading
Personal Weather Stations






























Interactive Weather Map
Tropical Storm Tracking
New forecast layout! Learn more

10-Day Weather Forecast

Advertisements
Track Severe Weather on mobile